createdAt,value
2022-09-23T00:07:46.000Z,3.60
2022-09-23T00:17:46.000Z,3.50
2022-09-23T00:27:45.000Z,3.30
2022-09-23T00:37:45.000Z,3.80
2022-09-23T00:57:45.000Z,3.60
2022-09-23T01:07:45.000Z,3.00
2022-09-23T01:17:45.000Z,3.70
2022-09-23T01:27:45.000Z,3.60
2022-09-23T01:37:45.000Z,3.70
2022-09-23T01:47:44.000Z,3.40
2022-09-23T01:57:44.000Z,4.10
2022-09-23T02:07:44.000Z,3.70
2022-09-23T02:27:44.000Z,3.20
2022-09-23T02:37:44.000Z,3.50
2022-09-23T02:47:44.000Z,3.20
2022-09-23T02:57:43.000Z,3.90
2022-09-23T03:07:43.000Z,4.30
2022-09-23T03:17:43.000Z,4.00
2022-09-23T03:27:43.000Z,3.20
2022-09-23T03:37:43.000Z,3.10
2022-09-23T03:57:43.000Z,4.30
2022-09-23T04:07:42.000Z,4.10
2022-09-23T04:17:42.000Z,4.50
2022-09-23T04:27:42.000Z,3.20
2022-09-23T04:37:42.000Z,3.20
2022-09-23T04:47:42.000Z,3.00
2022-09-23T04:57:42.000Z,3.90
2022-09-23T05:07:42.000Z,3.20
2022-09-23T05:27:41.000Z,3.30
2022-09-23T05:37:41.000Z,3.00
2022-09-23T05:47:41.000Z,3.70
2022-09-23T05:57:41.000Z,3.30
2022-09-23T06:07:41.000Z,3.50
2022-09-23T06:17:41.000Z,2.60
2022-09-23T06:27:41.000Z,3.00
2022-09-23T06:37:40.000Z,2.20
2022-09-23T06:57:40.000Z,2.00
2022-09-23T07:07:40.000Z,1.50
2022-09-23T07:17:40.000Z,1.50
2022-09-23T07:27:40.000Z,1.80
2022-09-23T07:37:40.000Z,2.20
2022-09-23T07:47:40.000Z,1.90
2022-09-23T07:57:39.000Z,1.60
2022-09-23T08:07:39.000Z,0.80
2022-09-23T08:27:39.000Z,1.20
2022-09-23T08:37:39.000Z,1.30
2022-09-23T08:47:39.000Z,1.10
2022-09-23T08:47:39.000Z,1.10
2022-09-23T08:57:39.000Z,1.00
2022-09-23T09:07:38.000Z,1.30
2022-09-23T09:17:38.000Z,1.50
2022-09-23T09:27:38.000Z,1.60
2022-09-23T09:37:38.000Z,1.00
2022-09-23T09:57:38.000Z,1.30
2022-09-23T10:07:38.000Z,1.20
2022-09-23T10:17:37.000Z,1.50
2022-09-23T10:27:37.000Z,1.30
2022-09-23T10:37:37.000Z,1.00
2022-09-23T10:47:37.000Z,1.70
2022-09-23T10:57:37.000Z,1.30
2022-09-23T11:07:37.000Z,1.60
2022-09-23T11:27:36.000Z,1.00
2022-09-23T11:37:36.000Z,1.30
2022-09-23T11:47:36.000Z,1.30
2022-09-23T11:57:36.000Z,0.90
2022-09-23T12:07:36.000Z,0.90
2022-09-23T12:17:36.000Z,1.00
2022-09-23T12:27:36.000Z,1.00
2022-09-23T12:37:35.000Z,0.80
2022-09-23T12:57:35.000Z,1.00
2022-09-23T13:07:35.000Z,1.20
2022-09-23T13:17:35.000Z,0.90
2022-09-23T13:27:35.000Z,0.60
2022-09-23T13:37:35.000Z,1.00
2022-09-23T13:47:35.000Z,0.70
2022-09-23T13:57:34.000Z,0.50
2022-09-23T14:07:34.000Z,0.80
2022-09-23T14:27:34.000Z,0.90
2022-09-23T14:37:34.000Z,0.80
2022-09-23T14:47:34.000Z,1.00
2022-09-23T14:57:34.000Z,1.40
2022-09-23T15:07:33.000Z,0.60
2022-09-23T15:17:33.000Z,1.30
2022-09-23T15:27:33.000Z,1.00
2022-09-23T15:37:33.000Z,0.90
2022-09-23T15:57:33.000Z,0.60
2022-09-23T16:07:33.000Z,0.70
2022-09-23T16:17:32.000Z,0.80
2022-09-23T16:27:32.000Z,1.50
2022-09-23T16:37:32.000Z,1.30
2022-09-23T16:47:32.000Z,0.90
2022-09-23T16:57:32.000Z,0.90
2022-09-23T17:07:32.000Z,1.50
2022-09-23T17:27:31.000Z,1.60
2022-09-23T17:37:31.000Z,2.60
2022-09-23T17:47:31.000Z,1.90
2022-09-23T17:57:31.000Z,2.10
2022-09-23T18:07:31.000Z,2.90
2022-09-23T18:17:31.000Z,2.50
2022-09-23T18:27:31.000Z,2.70
2022-09-23T18:37:30.000Z,3.00
2022-09-23T18:57:30.000Z,3.00
2022-09-23T19:07:30.000Z,3.00
2022-09-23T19:17:30.000Z,2.80
2022-09-23T19:27:30.000Z,2.80
2022-09-23T19:37:30.000Z,2.10
2022-09-23T19:47:30.000Z,3.10
2022-09-23T19:57:29.000Z,2.50
2022-09-23T20:07:29.000Z,2.80
2022-09-23T20:27:29.000Z,2.50
2022-09-23T20:37:29.000Z,2.50
2022-09-23T20:47:29.000Z,2.80
2022-09-23T20:57:29.000Z,2.80
2022-09-23T21:07:28.000Z,3.20
2022-09-23T21:17:28.000Z,2.30
2022-09-23T21:27:28.000Z,3.30
2022-09-23T21:37:28.000Z,3.20
2022-09-23T21:57:28.000Z,2.70
2022-09-23T22:07:28.000Z,3.70
2022-09-23T22:17:27.000Z,3.80
2022-09-23T22:27:27.000Z,2.40
2022-09-23T22:37:27.000Z,2.90
2022-09-23T22:47:27.000Z,2.60
2022-09-23T22:57:27.000Z,2.50
2022-09-23T23:07:27.000Z,2.70
2022-09-23T23:27:26.000Z,3.20
2022-09-23T23:37:26.000Z,2.50
2022-09-23T23:47:26.000Z,3.50
2022-09-23T23:57:26.000Z,3.50
